createdAt,value
2017-12-16T00:00:11.405Z,98757.14
2017-12-16T00:02:37.572Z,98741.72
2017-12-16T00:05:03.772Z,98735.27
2017-12-16T00:07:29.947Z,98728.94
2017-12-16T00:09:56.104Z,98713.48
2017-12-16T00:12:22.305Z,98704.56
2017-12-16T00:14:48.462Z,98714.06
2017-12-16T00:17:14.640Z,98722.66
2017-12-16T00:19:40.870Z,98726.95
2017-12-16T00:22:07.059Z,98730.77
2017-12-16T00:24:33.345Z,98719.97
2017-12-16T00:26:59.546Z,98723.29
2017-12-16T00:29:25.721Z,98736.73
2017-12-16T00:31:51.902Z,98711.20
2017-12-16T00:34:18.117Z,98698.64
2017-12-16T00:36:44.320Z,98697.48
2017-12-16T00:39:10.481Z,98711.83
2017-12-16T00:41:36.695Z,98713.62
2017-12-16T00:44:02.865Z,98712.18
2017-12-16T00:46:29.062Z,98708.18
2017-12-16T00:48:55.297Z,98693.45
2017-12-16T00:51:21.493Z,98696.09
2017-12-16T00:53:47.684Z,98690.48
2017-12-16T00:56:13.877Z,98691.77
2017-12-16T00:58:40.043Z,98684.10
2017-12-16T01:01:06.201Z,98686.88
2017-12-16T01:03:32.399Z,98692.25
2017-12-16T01:05:58.556Z,98696.73
2017-12-16T01:08:24.734Z,98687.83
2017-12-16T01:10:51.003Z,98696.53
2017-12-16T01:13:17.184Z,98678.92
2017-12-16T01:15:43.361Z,98663.98
2017-12-16T01:18:09.582Z,98650.45
2017-12-16T01:20:35.766Z,98652.37
2017-12-16T01:23:01.955Z,98642.11
2017-12-16T01:25:28.177Z,98667.13
2017-12-16T01:27:54.351Z,98667.88
2017-12-16T01:30:20.523Z,98650.05
2017-12-16T01:32:46.777Z,98647.77
2017-12-16T01:35:12.970Z,98646.78
2017-12-16T01:37:39.163Z,98647.98
2017-12-16T01:40:05.394Z,98646.73
2017-12-16T01:42:31.586Z,98655.01
2017-12-16T01:44:57.766Z,98643.94
2017-12-16T01:47:23.990Z,98636.28
2017-12-16T01:49:50.305Z,98626.93
2017-12-16T01:52:16.518Z,98621.95
2017-12-16T01:54:42.749Z,98616.16
2017-12-16T01:57:08.948Z,98621.23
2017-12-16T01:59:35.142Z,98623.65
2017-12-16T02:02:01.357Z,98616.13
2017-12-16T02:04:27.678Z,98609.53
2017-12-16T02:06:53.862Z,98616.66
2017-12-16T02:09:20.082Z,98618.13
2017-12-16T02:11:46.272Z,98627.81
2017-12-16T02:14:12.477Z,98624.77
2017-12-16T02:16:38.695Z,98637.08
2017-12-16T02:19:04.882Z,98640.05
2017-12-16T02:21:31.074Z,98631.50
2017-12-16T02:23:57.297Z,98633.20
2017-12-16T02:26:23.489Z,98632.38
2017-12-16T02:28:49.681Z,98622.89
2017-12-16T02:31:15.916Z,98625.12
2017-12-16T02:33:42.089Z,98624.81
2017-12-16T02:36:08.270Z,98617.32
2017-12-16T02:38:34.482Z,98628.75
2017-12-16T02:41:00.630Z,98625.52
2017-12-16T02:43:26.777Z,98629.19
2017-12-16T02:45:52.958Z,98617.77
2017-12-16T02:48:19.190Z,98621.13
2017-12-16T02:50:45.361Z,98617.19
2017-12-16T02:53:11.588Z,98618.43
2017-12-16T02:55:37.763Z,98609.82
2017-12-16T02:58:03.943Z,98601.55
2017-12-16T03:00:30.299Z,98617.19
2017-12-16T03:02:56.471Z,98623.14
2017-12-16T03:05:22.643Z,98632.62
2017-12-16T03:07:48.864Z,98632.28
2017-12-16T03:10:15.041Z,98623.55
2017-12-16T03:12:41.231Z,98627.85
2017-12-16T03:15:07.457Z,98638.01
2017-12-16T03:17:33.732Z,98647.69
2017-12-16T03:19:59.921Z,98638.98
2017-12-16T03:22:26.151Z,98630.50
2017-12-16T03:24:52.328Z,98646.66
2017-12-16T03:27:18.509Z,98629.33
2017-12-16T03:29:44.718Z,98635.28
2017-12-16T03:32:11.079Z,98626.23
2017-12-16T03:34:37.251Z,98626.94
2017-12-16T03:37:03.454Z,98626.30
2017-12-16T03:39:29.631Z,98623.33
2017-12-16T03:41:55.811Z,98616.06
2017-12-16T03:44:22.031Z,98616.34
2017-12-16T03:46:48.211Z,98622.36
2017-12-16T03:49:14.518Z,98631.14
2017-12-16T03:51:40.741Z,98617.09
2017-12-16T03:54:06.919Z,98609.85
2017-12-16T03:56:33.188Z,98608.37
2017-12-16T03:58:59.404Z,98610.93
2017-12-16T04:01:25.691Z,98600.94
2017-12-16T04:03:51.859Z,98596.50
2017-12-16T04:06:18.086Z,98611.63
2017-12-16T04:08:44.378Z,98605.81
2017-12-16T04:11:10.768Z,98606.62
2017-12-16T04:13:36.994Z,98603.16
2017-12-16T04:16:03.217Z,98598.41
2017-12-16T04:18:29.393Z,98599.03
2017-12-16T04:20:55.696Z,98604.00
2017-12-16T04:23:21.892Z,98600.88
2017-12-16T04:25:48.069Z,98596.55
2017-12-16T04:28:14.287Z,98603.87
2017-12-16T04:30:40.453Z,98586.88
2017-12-16T04:33:06.647Z,98592.72
2017-12-16T04:35:33.240Z,98597.16
2017-12-16T04:37:59.504Z,98601.11
2017-12-16T04:40:25.731Z,98593.31
2017-12-16T04:42:52.341Z,98610.13
2017-12-16T04:45:18.579Z,98580.52
2017-12-16T04:47:44.802Z,98581.59
2017-12-16T04:50:11.020Z,98577.56
2017-12-16T04:52:37.181Z,98600.20
2017-12-16T04:55:03.374Z,98598.44
2017-12-16T04:57:29.608Z,98593.87
2017-12-16T04:59:55.777Z,98594.40
2017-12-16T05:02:21.964Z,98589.02
2017-12-16T05:04:48.184Z,98578.11
2017-12-16T05:07:14.362Z,98595.19
2017-12-16T05:09:40.554Z,98559.38
2017-12-16T05:12:06.783Z,98551.70
2017-12-16T05:14:32.964Z,98558.04
2017-12-16T05:16:59.161Z,98556.56
2017-12-16T05:19:25.404Z,98563.83
2017-12-16T05:21:51.603Z,98561.41
2017-12-16T05:24:17.778Z,98556.30
2017-12-16T05:26:44.142Z,98549.81
2017-12-16T05:29:10.359Z,98551.05
2017-12-16T05:31:36.552Z,98558.58
2017-12-16T05:34:02.770Z,98573.95
2017-12-16T05:36:28.956Z,98565.98
2017-12-16T05:38:55.142Z,98561.97
2017-12-16T05:41:21.403Z,98558.71
2017-12-16T05:43:47.598Z,98570.05
2017-12-16T05:46:13.798Z,98548.36
2017-12-16T05:48:40.015Z,98562.63
2017-12-16T05:51:06.185Z,98554.81
2017-12-16T05:53:32.358Z,98541.62
2017-12-16T05:55:58.589Z,98545.66
2017-12-16T05:58:24.773Z,98547.28
2017-12-16T06:00:50.965Z,98551.03
2017-12-16T06:03:17.200Z,98546.89
2017-12-16T06:05:43.410Z,98561.97
2017-12-16T06:08:09.583Z,98547.02
2017-12-16T06:10:35.819Z,98549.83
2017-12-16T06:13:02.008Z,98559.94
2017-12-16T06:15:28.189Z,98559.14
2017-12-16T06:17:54.409Z,98555.06
2017-12-16T06:20:20.595Z,98557.39
2017-12-16T06:22:46.785Z,98558.03
2017-12-16T06:25:13.011Z,98562.22
2017-12-16T06:27:39.201Z,98542.16
2017-12-16T06:30:05.389Z,98563.16
2017-12-16T06:32:31.642Z,98571.78
2017-12-16T06:34:57.823Z,98553.84
2017-12-16T06:37:24.004Z,98553.13
2017-12-16T06:39:50.232Z,98549.48
2017-12-16T06:42:16.419Z,98549.47
2017-12-16T06:44:42.611Z,98572.84
2017-12-16T06:47:08.820Z,98558.28
2017-12-16T06:49:35.035Z,98555.80
2017-12-16T06:52:01.236Z,98544.58
2017-12-16T06:54:27.561Z,98562.37
2017-12-16T06:56:53.731Z,98537.69
2017-12-16T06:59:19.918Z,98562.25
2017-12-16T07:01:46.133Z,98548.55
2017-12-16T07:04:12.313Z,98533.23
2017-12-16T07:06:38.486Z,98525.16
2017-12-16T07:09:04.701Z,98528.14
2017-12-16T07:11:30.880Z,98530.73
2017-12-16T07:13:57.053Z,98524.52
2017-12-16T07:16:23.314Z,98521.11
2017-12-16T07:18:49.500Z,98514.80
2017-12-16T07:21:15.690Z,98516.23
2017-12-16T07:23:41.867Z,98508.80
2017-12-16T07:26:08.038Z,98505.84
2017-12-16T07:28:34.257Z,98512.92
2017-12-16T07:31:00.432Z,98504.53
2017-12-16T07:33:26.613Z,98512.84
2017-12-16T07:35:52.840Z,98502.35
2017-12-16T07:38:19.002Z,98502.89
2017-12-16T07:40:45.186Z,98511.55
2017-12-16T07:43:12.326Z,98506.15
2017-12-16T07:45:38.498Z,98522.63
2017-12-16T07:48:04.673Z,98542.75
2017-12-16T07:50:30.885Z,98524.67
2017-12-16T07:52:57.260Z,98526.94
2017-12-16T07:55:23.452Z,98537.97
2017-12-16T07:57:49.686Z,98542.91
2017-12-16T08:00:15.859Z,98527.41
2017-12-16T08:02:42.031Z,98543.56
2017-12-16T08:05:08.281Z,98565.05
2017-12-16T08:07:34.652Z,98538.96
2017-12-16T08:10:00.841Z,98557.67
2017-12-16T08:12:27.077Z,98548.19
2017-12-16T08:14:53.279Z,98552.65
2017-12-16T08:17:19.481Z,98562.13
2017-12-16T08:19:45.699Z,98577.33
2017-12-16T08:22:11.882Z,98590.08
2017-12-16T08:24:38.058Z,98600.17
2017-12-16T08:27:04.287Z,98594.77
2017-12-16T08:29:30.521Z,98599.75
2017-12-16T08:31:56.676Z,98609.17
2017-12-16T08:34:22.900Z,98595.90
2017-12-16T08:36:49.087Z,98589.17
2017-12-16T08:39:15.278Z,98600.17
2017-12-16T08:41:41.508Z,98603.64
2017-12-16T08:44:07.686Z,98618.58
2017-12-16T08:46:33.906Z,98626.80
2017-12-16T08:49:00.153Z,98629.11
2017-12-16T08:51:26.333Z,98632.28
2017-12-16T08:53:52.514Z,98646.97
2017-12-16T08:56:18.732Z,98639.55
2017-12-16T08:58:44.918Z,98642.20
2017-12-16T09:01:11.107Z,98626.61
2017-12-16T09:03:37.369Z,98627.20
2017-12-16T09:06:03.686Z,98629.73
2017-12-16T09:08:29.874Z,98633.05
2017-12-16T09:10:56.087Z,98635.63
2017-12-16T09:13:22.266Z,98628.00
2017-12-16T09:15:48.448Z,98632.73
2017-12-16T09:18:14.683Z,98626.69
2017-12-16T09:20:40.881Z,98631.10
2017-12-16T09:23:07.057Z,98640.92
2017-12-16T09:25:33.257Z,98633.09
2017-12-16T09:27:59.438Z,98626.31
2017-12-16T09:30:25.638Z,98631.00
2017-12-16T09:32:52.028Z,98633.89
2017-12-16T09:35:18.226Z,98635.61
2017-12-16T09:37:44.411Z,98638.30
2017-12-16T09:40:10.644Z,98641.34
2017-12-16T09:42:36.859Z,98646.37
2017-12-16T09:45:03.045Z,98641.34
2017-12-16T09:47:29.263Z,98642.14
2017-12-16T09:49:55.457Z,98631.36
2017-12-16T09:52:21.667Z,98635.13
2017-12-16T09:54:47.876Z,98623.63
2017-12-16T09:57:14.077Z,98637.80
2017-12-16T09:59:40.272Z,98626.87
2017-12-16T10:02:06.496Z,98629.03
2017-12-16T10:04:32.682Z,98617.72
2017-12-16T10:06:58.868Z,98613.97
2017-12-16T10:09:25.078Z,98600.35
2017-12-16T10:11:51.250Z,98599.33
2017-12-16T10:14:17.419Z,98587.68
2017-12-16T10:16:43.649Z,98591.37
2017-12-16T10:19:09.840Z,98597.70
2017-12-16T10:21:36.037Z,98594.64
2017-12-16T10:24:02.370Z,98595.54
2017-12-16T10:26:28.565Z,98592.48
2017-12-16T10:28:54.774Z,98598.05
2017-12-16T10:31:21.072Z,98602.03
2017-12-16T10:33:47.259Z,98623.51
2017-12-16T10:36:13.468Z,98622.06
2017-12-16T10:38:39.697Z,98633.28
2017-12-16T10:41:05.878Z,98621.56
2017-12-16T10:43:32.064Z,98618.32
2017-12-16T10:45:58.273Z,98611.61
2017-12-16T10:48:24.470Z,98610.83
2017-12-16T10:50:50.657Z,98623.38
2017-12-16T10:53:16.910Z,98612.89
2017-12-16T10:55:43.083Z,98623.44
2017-12-16T10:58:09.260Z,98631.66
2017-12-16T11:00:35.469Z,98620.79
2017-12-16T11:03:01.655Z,98608.10
2017-12-16T11:05:27.856Z,98605.30
2017-12-16T11:07:54.140Z,98612.23
2017-12-16T11:10:20.297Z,98616.88
2017-12-16T11:12:46.484Z,98613.75
2017-12-16T11:15:12.676Z,98613.35
2017-12-16T11:17:38.846Z,98627.53
2017-12-16T11:20:05.020Z,98629.13
2017-12-16T11:22:31.244Z,98634.56
2017-12-16T11:24:57.441Z,98631.05
2017-12-16T11:27:23.653Z,98633.17
2017-12-16T11:29:49.882Z,98634.16
2017-12-16T11:32:16.087Z,98638.30
2017-12-16T11:34:42.269Z,98632.15
2017-12-16T11:37:08.494Z,98645.89
2017-12-16T11:39:34.725Z,98640.86
2017-12-16T11:42:00.886Z,98653.44
2017-12-16T11:44:27.092Z,98641.97
2017-12-16T11:46:53.256Z,98646.45
2017-12-16T11:49:19.430Z,98652.35
2017-12-16T11:51:45.640Z,98654.17
2017-12-16T11:54:11.966Z,98653.57
2017-12-16T11:56:38.138Z,98656.29
2017-12-16T11:59:04.373Z,98656.47
2017-12-16T12:01:30.550Z,98647.01
2017-12-16T12:03:56.740Z,98645.72
2017-12-16T12:06:22.961Z,98649.83
2017-12-16T12:08:49.170Z,98646.79
2017-12-16T12:11:15.368Z,98653.03
2017-12-16T12:13:41.578Z,98649.66
2017-12-16T12:16:08.248Z,98657.45
2017-12-16T12:18:34.434Z,98657.23
2017-12-16T12:21:00.669Z,98649.67
2017-12-16T12:23:26.832Z,98647.83
2017-12-16T12:25:53.010Z,98653.73
2017-12-16T12:28:19.214Z,98653.24
2017-12-16T12:30:45.438Z,98665.16
2017-12-16T12:33:11.648Z,98661.24
2017-12-16T12:35:37.858Z,98667.87
2017-12-16T12:38:04.048Z,98668.91
2017-12-16T12:40:30.226Z,98663.62
2017-12-16T12:42:56.543Z,98669.27
2017-12-16T12:45:22.741Z,98653.06
2017-12-16T12:47:48.919Z,98648.57
2017-12-16T12:50:15.154Z,98664.30
2017-12-16T12:52:41.391Z,98658.45
2017-12-16T12:55:07.564Z,98670.20
2017-12-16T12:57:33.796Z,98671.68
2017-12-16T13:00:00.007Z,98676.02
2017-12-16T13:02:26.197Z,98671.79
2017-12-16T13:04:52.438Z,98672.92
2017-12-16T13:07:18.630Z,98678.50
2017-12-16T13:09:44.813Z,98685.23
2017-12-16T13:12:11.031Z,98670.38
2017-12-16T13:14:37.235Z,98667.66
2017-12-16T13:17:03.507Z,98666.59
2017-12-16T13:19:29.731Z,98659.75
2017-12-16T13:21:55.946Z,98658.84
2017-12-16T13:24:22.273Z,98650.86
2017-12-16T13:26:48.442Z,98650.16
2017-12-16T13:29:14.671Z,98655.41
2017-12-16T13:31:40.866Z,98659.78
2017-12-16T13:34:07.318Z,98661.20
2017-12-16T13:36:33.522Z,98671.34
2017-12-16T13:38:59.980Z,98669.28
2017-12-16T13:41:26.215Z,98662.65
2017-12-16T13:43:52.487Z,98674.44
2017-12-16T13:46:18.695Z,98677.95
2017-12-16T13:48:44.928Z,98677.47
2017-12-16T13:51:11.118Z,98671.28
2017-12-16T13:53:37.373Z,98678.48
2017-12-16T13:56:03.591Z,98683.91
2017-12-16T13:58:29.852Z,98674.34
2017-12-16T14:00:56.049Z,98670.42
2017-12-16T14:03:22.277Z,98674.98
2017-12-16T14:05:48.451Z,98678.47
2017-12-16T14:08:14.626Z,98682.69
2017-12-16T14:10:40.849Z,98685.11
2017-12-16T14:13:07.030Z,98685.94
2017-12-16T14:15:33.213Z,98683.53
2017-12-16T14:17:59.465Z,98686.55
2017-12-16T14:20:25.651Z,98689.22
2017-12-16T14:22:51.987Z,98694.25
2017-12-16T14:25:18.211Z,98695.39
2017-12-16T14:27:44.592Z,98703.02
2017-12-16T14:30:10.777Z,98715.16
2017-12-16T14:32:37.001Z,98715.81
2017-12-16T14:35:03.180Z,98726.36
2017-12-16T14:37:29.965Z,98724.91
2017-12-16T14:39:56.336Z,98742.73
2017-12-16T14:42:22.597Z,98793.06
2017-12-16T14:44:49.031Z,98815.32
2017-12-16T14:47:15.426Z,98836.05
2017-12-16T14:49:41.661Z,98861.39
2017-12-16T14:52:07.852Z,98885.41
2017-12-16T14:54:34.142Z,98896.36
2017-12-16T14:57:00.366Z,98904.37
2017-12-16T14:59:26.543Z,98895.72
2017-12-16T15:01:52.799Z,98931.91
2017-12-16T15:04:19.047Z,98949.92
2017-12-16T15:06:45.271Z,98960.15
2017-12-16T15:09:11.488Z,98969.38
2017-12-16T15:11:37.718Z,98979.13
2017-12-16T15:14:03.905Z,98980.78
2017-12-16T15:16:30.219Z,98992.49
2017-12-16T15:18:56.466Z,98990.36
2017-12-16T15:21:22.833Z,99006.36
2017-12-16T15:23:48.996Z,99011.00
2017-12-16T15:26:15.309Z,99021.62
2017-12-16T15:28:41.532Z,99029.23
2017-12-16T15:31:07.753Z,99027.61
2017-12-16T15:33:34.407Z,99026.62
2017-12-16T15:36:00.587Z,99031.84
2017-12-16T15:38:26.940Z,99038.14
2017-12-16T15:40:53.160Z,99058.41
2017-12-16T15:43:19.409Z,99070.70
2017-12-16T15:45:45.651Z,99082.89
2017-12-16T15:48:11.850Z,99083.02
2017-12-16T15:50:38.105Z,99089.97
2017-12-16T15:53:04.283Z,99097.71
2017-12-16T15:55:30.502Z,99104.56
2017-12-16T15:57:56.679Z,99109.95
2017-12-16T16:00:23.026Z,99111.70
2017-12-16T16:02:49.249Z,99110.48
2017-12-16T16:05:15.478Z,99105.39
2017-12-16T16:07:41.656Z,99110.70
2017-12-16T16:10:07.886Z,99110.31
2017-12-16T16:12:34.250Z,99118.92
2017-12-16T16:15:02.464Z,99125.93
2017-12-16T16:17:29.079Z,99126.28
2017-12-16T16:19:55.251Z,99130.11
2017-12-16T16:22:21.438Z,99137.91
2017-12-16T16:24:47.656Z,99139.48
2017-12-16T16:27:13.994Z,99146.67
2017-12-16T16:29:40.183Z,99150.20
2017-12-16T16:32:06.435Z,99152.16
2017-12-16T16:34:32.708Z,99154.37
2017-12-16T16:36:59.083Z,99155.46
2017-12-16T16:39:25.300Z,99161.00
2017-12-16T16:41:51.771Z,99156.44
2017-12-16T16:44:18.022Z,99157.88
2017-12-16T16:46:44.438Z,99161.18
2017-12-16T16:49:10.610Z,99163.48
2017-12-16T16:51:36.799Z,99166.38
2017-12-16T16:54:03.014Z,99171.77
2017-12-16T16:56:29.197Z,99165.88
2017-12-16T16:58:55.748Z,99164.71
2017-12-16T17:01:21.987Z,99175.52
2017-12-16T17:03:48.244Z,99173.52
2017-12-16T17:06:14.648Z,99185.11
2017-12-16T17:08:40.914Z,99184.69
2017-12-16T17:11:07.088Z,99186.58
2017-12-16T17:13:33.269Z,99192.97
2017-12-16T17:15:59.498Z,99193.98
2017-12-16T17:18:25.685Z,99195.52
2017-12-16T17:20:51.871Z,99194.75
2017-12-16T17:23:18.275Z,99206.25
2017-12-16T17:25:44.508Z,99209.67
2017-12-16T17:28:10.671Z,99211.69
2017-12-16T17:30:36.890Z,99214.53
2017-12-16T17:33:03.072Z,99217.45
2017-12-16T17:35:29.273Z,99227.43
2017-12-16T17:37:55.631Z,99224.02
2017-12-16T17:40:22.292Z,99229.97
2017-12-16T17:42:48.551Z,99233.30
2017-12-16T17:45:14.995Z,99235.43
2017-12-16T17:47:41.150Z,99242.31
2017-12-16T17:50:07.319Z,99240.56
2017-12-16T17:52:33.577Z,99243.63
2017-12-16T17:55:00.035Z,99252.54
2017-12-16T17:57:26.278Z,99256.16
2017-12-16T17:59:52.451Z,99260.80
2017-12-16T18:02:18.640Z,99271.66
2017-12-16T18:04:44.869Z,99264.95
2017-12-16T18:07:11.050Z,99270.84
2017-12-16T18:09:37.251Z,99267.47
2017-12-16T18:12:03.512Z,99263.81
2017-12-16T18:14:29.895Z,99279.09
2017-12-16T18:16:56.078Z,99281.82
2017-12-16T18:19:22.302Z,99280.55
2017-12-16T18:21:48.505Z,99279.33
2017-12-16T18:24:14.813Z,99279.09
2017-12-16T18:26:41.134Z,99279.86
2017-12-16T18:29:07.447Z,99277.46
2017-12-16T18:31:33.644Z,99277.10
2017-12-16T18:33:59.931Z,99277.99
2017-12-16T18:36:26.105Z,99277.34
2017-12-16T18:38:52.286Z,99274.17
2017-12-16T18:41:18.521Z,99279.33
2017-12-16T18:43:44.721Z,99286.44
2017-12-16T18:46:10.913Z,99284.84
2017-12-16T18:48:37.126Z,99283.69
2017-12-16T18:51:03.323Z,99288.52
2017-12-16T18:53:29.556Z,99283.09
2017-12-16T18:55:55.779Z,99285.70
2017-12-16T18:58:21.966Z,99282.17
2017-12-16T19:00:48.149Z,99274.44
2017-12-16T19:03:14.381Z,99274.88
2017-12-16T19:05:40.579Z,99282.28
2017-12-16T19:08:06.773Z,99288.09
2017-12-16T19:10:32.998Z,99286.20
2017-12-16T19:12:59.226Z,99295.17
2017-12-16T19:15:25.457Z,99294.21
2017-12-16T19:17:51.680Z,99302.48
2017-12-16T19:20:17.869Z,99307.98
2017-12-16T19:22:44.058Z,99309.48
2017-12-16T19:25:10.287Z,99302.80
2017-12-16T19:27:36.482Z,99297.76
2017-12-16T19:30:02.781Z,99306.00
2017-12-16T19:32:29.026Z,99308.48
2017-12-16T19:34:55.216Z,99307.52
2017-12-16T19:37:21.431Z,99311.27
2017-12-16T19:39:47.668Z,99308.31
2017-12-16T19:42:13.866Z,99316.16
2017-12-16T19:44:40.053Z,99317.47
2017-12-16T19:47:06.283Z,99332.06
2017-12-16T19:49:32.612Z,99335.61
2017-12-16T19:51:58.798Z,99328.99
2017-12-16T19:54:25.022Z,99333.52
2017-12-16T19:56:51.211Z,99336.66
2017-12-16T19:59:17.450Z,99331.83
2017-12-16T20:01:43.706Z,99341.22
2017-12-16T20:04:09.971Z,99343.73
2017-12-16T20:06:36.143Z,99341.78
2017-12-16T20:09:02.358Z,99350.86
2017-12-16T20:11:28.548Z,99349.26
2017-12-16T20:13:54.744Z,99347.86
2017-12-16T20:16:20.956Z,99344.89
2017-12-16T20:18:47.146Z,99347.45
2017-12-16T20:21:13.337Z,99359.55
2017-12-16T20:23:39.584Z,99367.13
2017-12-16T20:26:05.802Z,99361.28
2017-12-16T20:28:31.988Z,99373.51
2017-12-16T20:30:58.206Z,99377.56
2017-12-16T20:33:24.404Z,99382.86
2017-12-16T20:35:50.590Z,99380.06
2017-12-16T20:38:16.819Z,99385.77
2017-12-16T20:40:43.189Z,99386.70
2017-12-16T20:43:09.382Z,99395.08
2017-12-16T20:45:35.607Z,99399.90
2017-12-16T20:48:01.811Z,99402.98
2017-12-16T20:50:27.998Z,99404.84
2017-12-16T20:52:54.232Z,99407.78
2017-12-16T20:55:20.431Z,99415.00
2017-12-16T20:57:46.631Z,99414.22
2017-12-16T21:00:12.923Z,99410.14
2017-12-16T21:02:39.110Z,99409.23
2017-12-16T21:05:05.312Z,99408.25
2017-12-16T21:07:31.520Z,99400.20
2017-12-16T21:09:57.708Z,99403.12
2017-12-16T21:12:23.900Z,99400.32
2017-12-16T21:14:50.095Z,99396.79
2017-12-16T21:17:16.296Z,99394.99
2017-12-16T21:19:42.482Z,99393.45
2017-12-16T21:22:08.717Z,99388.34
2017-12-16T21:24:34.898Z,99391.55
2017-12-16T21:27:01.072Z,99388.47
2017-12-16T21:29:27.285Z,99387.13
2017-12-16T21:31:53.466Z,99399.98
2017-12-16T21:34:19.652Z,99394.80
2017-12-16T21:36:45.886Z,99405.07
2017-12-16T21:39:12.076Z,99400.70
2017-12-16T21:41:38.824Z,99394.41
2017-12-16T21:44:05.036Z,99390.63
2017-12-16T21:46:31.248Z,99394.55
2017-12-16T21:48:57.417Z,99393.74
2017-12-16T21:51:23.626Z,99389.61
2017-12-16T21:53:49.781Z,99393.63
2017-12-16T21:56:15.962Z,99382.12
2017-12-16T21:58:42.149Z,99387.69
2017-12-16T22:01:08.323Z,99383.94
2017-12-16T22:03:34.533Z,99382.56
2017-12-16T22:06:00.742Z,99384.12
2017-12-16T22:08:26.893Z,99385.05
2017-12-16T22:10:53.087Z,99394.19
2017-12-16T22:13:19.285Z,99389.30
2017-12-16T22:15:45.449Z,99384.55
2017-12-16T22:18:11.601Z,99392.23
2017-12-16T22:20:37.810Z,99389.33
2017-12-16T22:23:03.994Z,99392.97
2017-12-16T22:25:30.177Z,99394.67
2017-12-16T22:27:56.381Z,99398.61
2017-12-16T22:30:22.561Z,99393.70
2017-12-16T22:32:48.854Z,99400.83
2017-12-16T22:35:15.051Z,99392.30
2017-12-16T22:37:41.218Z,99394.27
2017-12-16T22:40:07.392Z,99392.33
2017-12-16T22:42:33.608Z,99387.99
2017-12-16T22:44:59.800Z,99387.17
2017-12-16T22:47:25.983Z,99389.62
2017-12-16T22:49:52.201Z,99380.64
2017-12-16T22:52:18.447Z,99388.96
2017-12-16T22:54:44.625Z,99390.18
2017-12-16T22:57:10.857Z,99375.25
2017-12-16T22:59:37.044Z,99372.43
2017-12-16T23:02:03.253Z,99378.23
2017-12-16T23:04:29.468Z,99376.45
2017-12-16T23:06:55.660Z,99364.65
2017-12-16T23:09:21.833Z,99365.73
2017-12-16T23:11:48.016Z,99371.41
2017-12-16T23:14:14.198Z,99374.19
2017-12-16T23:16:40.391Z,99360.72
2017-12-16T23:19:06.618Z,99368.40
2017-12-16T23:21:32.804Z,99368.84
2017-12-16T23:23:58.982Z,99369.44
2017-12-16T23:26:25.176Z,99371.37
2017-12-16T23:28:51.347Z,99368.66
2017-12-16T23:31:17.515Z,99370.47
2017-12-16T23:33:43.730Z,99380.75
2017-12-16T23:36:09.918Z,99377.74
2017-12-16T23:38:36.259Z,99373.63
2017-12-16T23:41:02.470Z,99369.20
2017-12-16T23:43:28.644Z,99370.61
2017-12-16T23:45:54.813Z,99375.14
2017-12-16T23:48:21.034Z,99373.41
2017-12-16T23:50:47.217Z,99372.22
2017-12-16T23:53:13.400Z,99374.00
2017-12-16T23:55:39.778Z,99375.30
2017-12-16T23:58:06.081Z,99381.65
